createdAt,value
2022-08-25T00:00:11.787Z,76.10
2022-08-25T00:02:38.760Z,76.20
2022-08-25T00:05:06.609Z,76.40
2022-08-25T00:07:35.188Z,76.50
2022-08-25T00:10:02.158Z,76.20
2022-08-25T00:12:29.070Z,75.80
2022-08-25T00:14:55.957Z,75.30
2022-08-25T00:17:22.883Z,75.00
2022-08-25T00:19:49.769Z,75.00
2022-08-25T00:22:16.701Z,74.90
2022-08-25T00:24:43.607Z,74.80
2022-08-25T00:27:12.278Z,75.20
2022-08-25T00:29:39.759Z,75.70
2022-08-25T00:32:07.096Z,76.20
2022-08-25T00:34:37.269Z,75.70
2022-08-25T00:37:07.349Z,76.00
2022-08-25T00:39:38.631Z,75.50
2022-08-25T00:42:11.890Z,75.10
2022-08-25T00:44:44.157Z,74.70
2022-08-25T00:47:11.428Z,74.70
2022-08-25T00:49:38.558Z,75.10
2022-08-25T00:52:13.584Z,74.70
2022-08-25T00:54:42.456Z,74.80
2022-08-25T00:57:12.944Z,75.00
2022-08-25T00:59:40.629Z,75.20
2022-08-25T01:02:13.644Z,75.40
2022-08-25T01:04:45.874Z,75.70
2022-08-25T01:07:19.018Z,75.80
2022-08-25T01:09:48.082Z,75.60
2022-08-25T01:12:15.677Z,75.50
2022-08-25T01:14:45.982Z,75.30
2022-08-25T01:17:13.417Z,76.00
2022-08-25T01:19:40.528Z,76.30
2022-08-25T01:22:08.065Z,77.30
2022-08-25T01:24:50.840Z,77.00
2022-08-25T01:27:17.762Z,77.00
2022-08-25T01:29:44.689Z,77.20
2022-08-25T01:32:13.361Z,78.20
2022-08-25T01:34:44.173Z,76.60
2022-08-25T01:37:13.968Z,76.70
2022-08-25T01:39:42.443Z,77.60
2022-08-25T01:42:52.734Z,78.70
2022-08-25T01:45:20.608Z,78.10
2022-08-25T01:47:47.815Z,77.50
2022-08-25T01:50:15.168Z,77.10
2022-08-25T01:53:08.539Z,78.80
2022-08-25T01:55:51.553Z,78.60
2022-08-25T01:58:34.214Z,78.80
2022-08-25T02:01:03.635Z,79.00
2022-08-25T02:03:31.048Z,79.10
2022-08-25T02:06:01.473Z,79.10
2022-08-25T02:08:31.323Z,78.90
2022-08-25T02:11:01.037Z,79.00
2022-08-25T02:13:31.474Z,79.30
2022-08-25T02:16:01.287Z,80.00
2022-08-25T02:18:28.907Z,80.10
2022-08-25T02:20:55.817Z,80.60
2022-08-25T02:23:22.749Z,80.50
2022-08-25T02:25:49.645Z,80.70
2022-08-25T02:28:16.853Z,81.20
2022-08-25T02:30:44.796Z,80.80
2022-08-25T02:33:12.031Z,80.90
2022-08-25T02:35:39.228Z,81.70
2022-08-25T02:38:07.223Z,81.90
2022-08-25T02:40:34.703Z,81.70
2022-08-25T02:43:02.232Z,81.10
2022-08-25T02:45:29.461Z,81.00
2022-08-25T02:47:56.329Z,81.20
2022-08-25T02:50:23.723Z,81.30
2022-08-25T02:52:53.285Z,80.90
2022-08-25T02:55:20.532Z,80.80
2022-08-25T02:57:48.287Z,80.80
2022-08-25T03:00:16.345Z,81.00
2022-08-25T03:02:44.592Z,81.10
2022-08-25T03:05:14.186Z,81.00
2022-08-25T03:07:45.490Z,81.10
2022-08-25T03:10:15.974Z,81.20
2022-08-25T03:12:46.128Z,81.10
2022-08-25T03:15:18.244Z,81.50
2022-08-25T03:17:46.869Z,81.80
2022-08-25T03:20:14.071Z,82.20
2022-08-25T03:22:41.491Z,82.10
2022-08-25T03:25:27.304Z,82.30
2022-08-25T03:27:54.271Z,82.40
2022-08-25T03:30:21.507Z,82.50
2022-08-25T03:32:48.659Z,82.40
2022-08-25T03:35:15.599Z,82.40
2022-08-25T03:37:42.585Z,83.10
2022-08-25T03:40:14.705Z,83.60
2022-08-25T03:42:45.935Z,83.60
2022-08-25T03:45:16.565Z,83.60
2022-08-25T03:47:47.191Z,84.10
2022-08-25T03:50:17.325Z,84.10
2022-08-25T03:52:45.489Z,83.80
2022-08-25T03:55:15.656Z,83.50
2022-08-25T03:57:42.555Z,83.30
2022-08-25T04:00:12.241Z,83.10
2022-08-25T04:02:40.229Z,83.30
2022-08-25T04:05:08.558Z,83.20
2022-08-25T04:07:35.934Z,83.60
2022-08-25T04:10:04.017Z,83.70
2022-08-25T04:12:30.940Z,83.40
2022-08-25T04:15:01.715Z,83.00
2022-08-25T04:17:28.710Z,83.00
2022-08-25T04:19:55.794Z,83.50
2022-08-25T04:22:23.108Z,83.60
2022-08-25T04:24:50.196Z,83.90
2022-08-25T04:27:17.215Z,84.10
2022-08-25T04:29:44.116Z,83.80
2022-08-25T04:32:11.018Z,84.30
2022-08-25T04:34:37.947Z,85.00
2022-08-25T04:37:07.734Z,85.00
2022-08-25T04:39:35.043Z,84.80
2022-08-25T04:42:02.649Z,84.60
2022-08-25T04:44:30.973Z,84.60
2022-08-25T04:46:58.407Z,84.70
2022-08-25T04:49:25.675Z,84.50
2022-08-25T04:51:52.559Z,84.60
2022-08-25T04:54:22.262Z,84.40
2022-08-25T04:56:54.308Z,84.10
2022-08-25T04:59:24.805Z,84.00
2022-08-25T05:02:02.177Z,84.30
2022-08-25T05:04:29.617Z,84.20
2022-08-25T05:06:57.358Z,84.60
2022-08-25T05:09:25.335Z,84.40
2022-08-25T05:11:52.951Z,84.30
2022-08-25T05:14:25.760Z,84.30
2022-08-25T05:16:57.359Z,84.20
2022-08-25T05:19:25.283Z,83.60
2022-08-25T05:21:53.925Z,82.10
2022-08-25T05:24:22.281Z,81.00
2022-08-25T05:26:49.388Z,79.80
2022-08-25T05:29:17.073Z,78.50
2022-08-25T05:31:50.030Z,77.60
2022-08-25T05:34:18.911Z,76.60
2022-08-25T05:36:46.517Z,76.70
2022-08-25T05:39:13.505Z,77.70
2022-08-25T05:41:40.763Z,77.70
2022-08-25T05:44:07.765Z,77.80
2022-08-25T05:46:36.466Z,76.80
2022-08-25T05:49:03.562Z,75.40
2022-08-25T05:51:30.526Z,74.50
2022-08-25T05:53:57.501Z,75.40
2022-08-25T05:56:26.979Z,75.60
2022-08-25T05:58:54.269Z,75.70
2022-08-25T06:01:45.621Z,74.70
2022-08-25T06:04:13.826Z,72.70
2022-08-25T06:06:41.114Z,73.00
2022-08-25T06:09:09.738Z,73.40
2022-08-25T06:11:39.871Z,72.00
2022-08-25T06:14:08.779Z,72.30
2022-08-25T06:16:36.268Z,71.30
2022-08-25T06:19:03.329Z,70.30
2022-08-25T06:21:30.573Z,69.60
2022-08-25T06:23:57.548Z,68.50
2022-08-25T06:26:25.263Z,68.30
2022-08-25T06:28:53.168Z,67.70
2022-08-25T06:31:22.440Z,68.10
2022-08-25T06:33:50.673Z,68.70
2022-08-25T06:36:19.216Z,69.10
2022-08-25T06:38:47.072Z,68.70
2022-08-25T06:41:14.613Z,68.10
2022-08-25T06:43:47.989Z,68.20
2022-08-25T06:46:18.799Z,68.10
2022-08-25T06:48:45.889Z,67.60
2022-08-25T06:51:15.707Z,68.30
2022-08-25T06:53:43.781Z,68.30
2022-08-25T06:56:11.233Z,68.40
2022-08-25T06:58:39.135Z,68.30
2022-08-25T07:01:15.802Z,68.20
2022-08-25T07:03:48.026Z,68.10
2022-08-25T07:06:18.288Z,68.10
2022-08-25T07:08:46.541Z,67.60
2022-08-25T07:11:18.117Z,67.50
2022-08-25T07:13:46.001Z,67.40
2022-08-25T07:16:15.734Z,67.60
2022-08-25T07:18:44.086Z,67.00
2022-08-25T07:21:12.318Z,66.40
2022-08-25T07:23:41.099Z,66.00
2022-08-25T07:29:11.185Z,65.80
2022-08-25T07:31:38.603Z,64.50
2022-08-25T07:34:25.637Z,63.30
2022-08-25T07:36:55.073Z,63.40
2022-08-25T07:39:22.992Z,63.40
2022-08-25T07:41:52.021Z,63.00
2022-08-25T07:44:21.458Z,63.10
2022-08-25T07:46:50.366Z,62.60
2022-08-25T07:49:23.107Z,62.10
2022-08-25T07:52:05.743Z,61.90
2022-08-25T07:54:35.564Z,62.00
2022-08-25T07:57:07.299Z,61.90
2022-08-25T07:59:40.103Z,61.30
2022-08-25T08:02:17.742Z,61.90
2022-08-25T08:04:49.904Z,61.80
2022-08-25T08:07:25.841Z,61.30
2022-08-25T08:10:42.444Z,61.20
2022-08-25T08:12:59.315Z,61.30
2022-08-25T08:15:26.160Z,61.80
2022-08-25T08:17:57.992Z,62.10
2022-08-25T08:20:25.767Z,61.10
2022-08-25T08:22:52.751Z,61.60
2022-08-25T08:25:26.466Z,62.00
2022-08-25T08:27:55.283Z,62.80
2022-08-25T08:30:25.968Z,63.10
2022-08-25T08:33:11.825Z,63.30
2022-08-25T08:35:40.836Z,63.10
2022-08-25T08:38:14.435Z,63.70
2022-08-25T08:41:22.824Z,63.50
2022-08-25T08:43:56.579Z,63.30
2022-08-25T08:46:27.637Z,63.60
2022-08-25T08:49:28.040Z,63.80
2022-08-25T08:52:01.012Z,63.50
2022-08-25T08:54:36.226Z,63.60
2022-08-25T08:57:10.552Z,64.30
2022-08-25T08:59:51.554Z,64.10
2022-08-25T09:02:53.706Z,64.30
2022-08-25T09:05:24.246Z,64.50
2022-08-25T09:07:57.202Z,63.10
2022-08-25T09:10:28.976Z,63.00
2022-08-25T09:13:33.620Z,63.20
2022-08-25T09:16:33.804Z,63.60
2022-08-25T09:19:21.404Z,63.90
2022-08-25T09:21:59.595Z,63.90
2022-08-25T09:24:33.582Z,64.30
2022-08-25T09:27:34.222Z,65.20
2022-08-25T09:30:10.669Z,64.50
2022-08-25T09:33:06.789Z,64.40
2022-08-25T09:35:40.390Z,64.50
2022-08-25T09:38:13.310Z,64.30
2022-08-25T09:40:43.314Z,62.70
2022-08-25T09:43:28.871Z,63.20
2022-08-25T09:46:14.819Z,63.20
2022-08-25T09:48:57.871Z,62.70
2022-08-25T09:51:38.344Z,62.80
2022-08-25T09:54:15.695Z,61.90
2022-08-25T09:56:57.985Z,60.60
2022-08-25T09:59:35.011Z,60.60
2022-08-25T10:02:28.712Z,61.60
2022-08-25T10:04:57.172Z,61.00
2022-08-25T10:07:39.641Z,60.70
2022-08-25T10:10:27.988Z,61.00
2022-08-25T10:13:01.148Z,60.30
2022-08-25T10:15:35.264Z,61.10
2022-08-25T10:18:22.524Z,60.70
2022-08-25T10:21:07.495Z,59.90
2022-08-25T10:23:37.390Z,60.00
2022-08-25T10:26:11.805Z,59.60
2022-08-25T10:28:54.590Z,59.50
2022-08-25T10:31:45.180Z,59.90
2022-08-25T10:34:26.248Z,60.10
2022-08-25T10:37:11.140Z,59.80
2022-08-25T10:39:55.439Z,58.60
2022-08-25T10:42:35.423Z,59.50
2022-08-25T10:45:32.321Z,60.10
2022-08-25T10:48:14.471Z,60.10
2022-08-25T10:51:01.134Z,60.70
2022-08-25T10:53:53.767Z,60.50
2022-08-25T10:56:40.223Z,60.00
2022-08-25T10:59:35.501Z,60.30
2022-08-25T11:02:31.815Z,60.50
2022-08-25T11:05:08.700Z,60.50
2022-08-25T11:07:42.918Z,60.40
2022-08-25T11:10:20.818Z,60.00
2022-08-25T11:12:59.640Z,60.30
2022-08-25T11:16:17.194Z,57.60
2022-08-25T11:19:02.609Z,58.00
2022-08-25T11:21:42.140Z,59.20
2022-08-25T11:24:31.528Z,59.30
2022-08-25T11:26:59.232Z,59.20
2022-08-25T11:29:32.757Z,59.70
2022-08-25T11:32:01.976Z,58.60
2022-08-25T11:34:33.268Z,59.00
2022-08-25T11:37:11.102Z,58.10
2022-08-25T11:40:05.004Z,59.00
2022-08-25T11:42:38.495Z,58.90
2022-08-25T11:45:19.547Z,58.00
2022-08-25T11:48:13.772Z,58.70
2022-08-25T11:50:59.627Z,59.50
2022-08-25T11:53:44.143Z,58.00
2022-08-25T11:56:36.403Z,58.30
2022-08-25T11:59:07.003Z,58.70
2022-08-25T12:01:40.237Z,58.20
2022-08-25T12:04:44.458Z,58.10
2022-08-25T12:07:19.004Z,59.10
2022-08-25T12:09:53.720Z,57.70
2022-08-25T12:12:41.691Z,57.60
2022-08-25T12:15:22.894Z,57.80
2022-08-25T12:18:35.050Z,58.30
2022-08-25T12:21:02.625Z,58.90
2022-08-25T12:23:44.682Z,58.10
2022-08-25T12:26:30.340Z,58.10
2022-08-25T12:28:58.999Z,56.80
2022-08-25T12:31:31.537Z,57.20
2022-08-25T12:34:15.836Z,58.20
2022-08-25T12:36:58.096Z,57.60
2022-08-25T12:39:31.944Z,57.10
2022-08-25T12:42:03.402Z,57.20
2022-08-25T12:44:40.067Z,57.30
2022-08-25T12:47:32.376Z,57.20
2022-08-25T12:50:33.424Z,57.70
2022-08-25T12:53:15.703Z,57.00
2022-08-25T12:55:49.936Z,57.20
2022-08-25T12:58:17.097Z,57.40
2022-08-25T13:01:37.966Z,57.10
2022-08-25T13:04:18.828Z,58.00
2022-08-25T13:06:58.661Z,58.30
2022-08-25T13:09:31.391Z,57.80
2022-08-25T13:12:04.458Z,58.00
2022-08-25T13:14:44.991Z,58.10
2022-08-25T13:17:24.370Z,57.90
2022-08-25T13:19:51.271Z,58.20
2022-08-25T13:22:20.829Z,58.20
2022-08-25T13:24:53.595Z,57.90
2022-08-25T13:27:27.201Z,57.60
2022-08-25T13:29:58.143Z,58.20
2022-08-25T13:32:32.363Z,58.70
2022-08-25T13:35:19.762Z,58.70
2022-08-25T13:37:47.430Z,57.70
2022-08-25T13:40:20.223Z,57.80
2022-08-25T13:42:59.382Z,57.80
2022-08-25T13:45:32.322Z,57.50
2022-08-25T13:47:59.523Z,57.70
2022-08-25T13:50:26.905Z,57.30
2022-08-25T13:53:25.277Z,57.50
2022-08-25T13:55:57.191Z,57.00
2022-08-25T13:58:44.364Z,57.10
2022-08-25T14:01:48.915Z,56.50
2022-08-25T14:04:51.664Z,57.20
2022-08-25T14:07:22.685Z,56.60
2022-08-25T14:09:52.848Z,56.70
2022-08-25T14:12:31.223Z,56.60
2022-08-25T14:15:04.067Z,56.70
2022-08-25T14:17:39.973Z,57.10
2022-08-25T14:20:18.335Z,56.20
2022-08-25T14:22:45.251Z,56.60
2022-08-25T14:25:13.351Z,56.40
2022-08-25T14:28:06.488Z,56.60
2022-08-25T14:30:36.305Z,56.70
2022-08-25T14:33:04.381Z,57.20
2022-08-25T14:35:31.735Z,57.20
2022-08-25T14:37:58.982Z,57.00
2022-08-25T14:40:27.354Z,56.60
2022-08-25T14:42:56.697Z,56.70
2022-08-25T14:45:23.719Z,56.80
2022-08-25T14:47:50.660Z,56.20
2022-08-25T14:50:24.895Z,56.60
2022-08-25T14:52:52.298Z,56.50
2022-08-25T14:55:31.596Z,56.40
2022-08-25T14:57:59.602Z,56.20
2022-08-25T15:00:26.849Z,56.30
2022-08-25T15:02:55.167Z,56.50
2022-08-25T15:05:27.090Z,56.40
2022-08-25T15:08:14.461Z,56.50
2022-08-25T15:10:43.388Z,56.40
2022-08-25T15:13:10.772Z,56.40
2022-08-25T15:15:52.281Z,56.40
2022-08-25T15:18:20.502Z,56.10
2022-08-25T15:20:49.896Z,56.20
2022-08-25T15:23:18.565Z,55.80
2022-08-25T15:25:47.315Z,55.60
2022-08-25T15:28:17.419Z,56.10
2022-08-25T15:30:45.878Z,56.30
2022-08-25T15:33:17.460Z,56.30
2022-08-25T15:35:45.186Z,56.10
2022-08-25T15:38:12.852Z,56.00
2022-08-25T15:40:39.956Z,56.10
2022-08-25T15:43:07.399Z,55.70
2022-08-25T15:45:36.302Z,55.50
2022-08-25T15:48:06.888Z,55.10
2022-08-25T15:50:37.177Z,55.90
2022-08-25T15:53:06.040Z,56.10
2022-08-25T15:55:39.690Z,56.00
2022-08-25T15:58:07.072Z,55.70
2022-08-25T16:00:36.389Z,55.60
2022-08-25T16:03:08.225Z,56.50
2022-08-25T16:05:37.341Z,55.90
2022-08-25T16:08:05.182Z,55.80
2022-08-25T16:10:38.893Z,56.40
2022-08-25T16:13:08.735Z,55.90
2022-08-25T16:15:38.054Z,55.80
2022-08-25T16:18:05.738Z,55.80
2022-08-25T16:20:36.771Z,55.70
2022-08-25T16:23:04.231Z,55.80
2022-08-25T16:25:31.461Z,55.60
2022-08-25T16:27:58.311Z,55.50
2022-08-25T16:30:28.443Z,56.00
2022-08-25T16:32:55.832Z,55.60
2022-08-25T16:35:23.574Z,55.90
2022-08-25T16:37:50.415Z,55.60
2022-08-25T16:40:20.108Z,55.50
2022-08-25T16:42:48.561Z,55.60
2022-08-25T16:45:15.503Z,55.50
2022-08-25T16:47:43.341Z,55.70
2022-08-25T16:50:10.997Z,56.00
2022-08-25T16:52:59.415Z,56.50
2022-08-25T16:55:28.136Z,58.00
2022-08-25T16:58:06.821Z,55.70
2022-08-25T17:00:37.229Z,55.50
2022-08-25T17:03:05.296Z,55.50
2022-08-25T17:05:38.904Z,56.10
2022-08-25T17:08:38.241Z,55.90
2022-08-25T17:11:12.524Z,55.90
2022-08-25T17:13:44.553Z,55.90
2022-08-25T17:16:13.314Z,56.30
2022-08-25T17:18:42.656Z,56.70
2022-08-25T17:21:19.535Z,56.10
2022-08-25T17:23:53.013Z,55.90
2022-08-25T17:26:20.276Z,55.80
2022-08-25T17:28:55.024Z,55.90
2022-08-25T17:31:23.095Z,55.70
2022-08-25T17:33:52.313Z,55.80
2022-08-25T17:36:26.820Z,56.20
2022-08-25T17:38:54.559Z,56.10
2022-08-25T17:41:24.076Z,56.60
2022-08-25T17:43:51.150Z,57.10
2022-08-25T17:46:18.283Z,56.70
2022-08-25T17:48:46.048Z,57.10
2022-08-25T17:51:16.430Z,57.50
2022-08-25T17:53:43.811Z,57.50
2022-08-25T17:56:16.883Z,57.50
2022-08-25T17:58:47.176Z,57.60
2022-08-25T18:01:25.566Z,57.70
2022-08-25T18:03:53.372Z,59.00
2022-08-25T18:06:23.793Z,59.80
2022-08-25T18:08:52.196Z,61.00
2022-08-25T18:11:23.636Z,61.90
2022-08-25T18:13:55.008Z,62.00
2022-08-25T18:16:23.471Z,62.40
2022-08-25T18:18:51.463Z,63.60
2022-08-25T18:21:23.641Z,63.10
2022-08-25T18:23:51.063Z,63.60
2022-08-25T18:26:21.932Z,63.60
2022-08-25T18:28:52.510Z,64.50
2022-08-25T18:31:19.928Z,64.50
2022-08-25T18:33:47.701Z,65.10
2022-08-25T18:36:20.429Z,64.80
2022-08-25T18:39:07.762Z,65.60
2022-08-25T18:41:38.496Z,65.50
2022-08-25T18:44:07.307Z,65.80
2022-08-25T18:46:36.915Z,66.30
2022-08-25T18:49:04.572Z,66.80
2022-08-25T18:51:32.930Z,67.10
2022-08-25T18:54:01.079Z,66.60
2022-08-25T18:56:29.180Z,65.40
2022-08-25T18:58:56.556Z,65.30
2022-08-25T19:01:24.172Z,65.50
2022-08-25T19:03:51.253Z,65.30
2022-08-25T19:06:19.389Z,65.20
2022-08-25T19:08:46.672Z,66.30
2022-08-25T19:11:15.896Z,65.80
2022-08-25T19:13:43.395Z,65.50
2022-08-25T19:16:20.279Z,66.10
2022-08-25T19:18:48.695Z,66.70
2022-08-25T19:21:15.760Z,67.00
2022-08-25T19:23:42.662Z,67.30
2022-08-25T19:26:17.093Z,67.30
2022-08-25T19:28:45.817Z,68.10
2022-08-25T19:31:16.081Z,68.70
2022-08-25T19:33:47.321Z,68.50
2022-08-25T19:36:15.050Z,68.10
2022-08-25T19:38:44.006Z,67.40
2022-08-25T19:41:14.661Z,67.20
2022-08-25T19:43:55.999Z,67.90
2022-08-25T19:46:36.454Z,68.30
2022-08-25T19:49:11.690Z,69.10
2022-08-25T19:51:40.941Z,69.40
2022-08-25T19:54:11.635Z,70.40
2022-08-25T19:56:53.998Z,70.20
2022-08-25T19:59:40.824Z,70.30
2022-08-25T20:02:25.060Z,70.00
2022-08-25T20:04:55.103Z,70.20
2022-08-25T20:07:25.460Z,69.70
2022-08-25T20:09:53.615Z,69.50
2022-08-25T20:12:22.026Z,69.60
2022-08-25T20:14:50.866Z,69.90
2022-08-25T20:17:23.442Z,69.40
2022-08-25T20:19:52.508Z,69.70
2022-08-25T20:22:22.526Z,70.50
2022-08-25T20:24:56.162Z,70.50
2022-08-25T20:27:37.435Z,70.20
2022-08-25T20:30:11.581Z,71.40
2022-08-25T20:32:38.509Z,72.10
2022-08-25T20:35:08.913Z,72.50
2022-08-25T20:37:37.149Z,72.00
2022-08-25T20:40:05.338Z,71.20
2022-08-25T20:42:32.263Z,70.80
2022-08-25T20:44:59.282Z,71.70
2022-08-25T20:47:26.225Z,71.70
2022-08-25T20:49:54.471Z,71.80
2022-08-25T20:52:21.389Z,72.00
2022-08-25T20:54:51.376Z,71.90
2022-08-25T20:57:25.764Z,72.30
2022-08-25T20:59:54.196Z,72.70
2022-08-25T21:02:22.007Z,72.60
2022-08-25T21:04:50.479Z,73.10
2022-08-25T21:07:18.485Z,72.90
2022-08-25T21:09:46.275Z,72.50
2022-08-25T21:12:13.561Z,72.00
2022-08-25T21:14:41.722Z,72.30
2022-08-25T21:17:12.080Z,72.40
2022-08-25T21:19:40.315Z,72.60
2022-08-25T21:22:09.799Z,72.50
2022-08-25T21:24:38.408Z,72.50
2022-08-25T21:27:05.484Z,71.80
2022-08-25T21:29:33.393Z,71.80
2022-08-25T21:32:00.510Z,71.40
2022-08-25T21:34:29.045Z,72.90
2022-08-25T21:36:57.937Z,73.40
2022-08-25T21:39:27.547Z,73.70
2022-08-25T21:41:55.409Z,73.40
2022-08-25T21:44:22.448Z,74.10
2022-08-25T21:46:54.114Z,73.50
2022-08-25T21:49:22.511Z,73.00
2022-08-25T21:51:59.353Z,72.90
2022-08-25T21:54:28.626Z,73.40
2022-08-25T21:56:59.682Z,72.90
2022-08-25T21:59:35.657Z,72.50
2022-08-25T22:02:07.967Z,72.70
2022-08-25T22:04:36.897Z,74.00
2022-08-25T22:07:07.179Z,73.50
2022-08-25T22:09:35.370Z,74.10
2022-08-25T22:12:02.836Z,74.40
2022-08-25T22:14:29.872Z,74.70
2022-08-25T22:16:57.234Z,74.60
2022-08-25T22:19:24.854Z,74.50
2022-08-25T22:21:52.744Z,74.80
2022-08-25T22:24:20.245Z,74.70
2022-08-25T22:26:49.207Z,74.50
2022-08-25T22:29:24.840Z,74.80
2022-08-25T22:31:57.703Z,74.60
2022-08-25T22:34:30.713Z,73.70
2022-08-25T22:37:00.171Z,73.10
2022-08-25T22:39:27.787Z,72.50
2022-08-25T22:41:54.689Z,72.60
2022-08-25T22:44:23.314Z,72.20
2022-08-25T22:46:53.644Z,73.80
2022-08-25T22:49:21.107Z,74.40
2022-08-25T22:51:48.093Z,73.00
2022-08-25T22:54:15.981Z,73.90
2022-08-25T22:56:43.630Z,75.10
2022-08-25T22:59:13.613Z,75.00
2022-08-25T23:01:42.871Z,75.70
2022-08-25T23:04:10.061Z,75.30
2022-08-25T23:06:38.003Z,74.70
2022-08-25T23:09:09.680Z,75.10
2022-08-25T23:11:38.826Z,75.30
2022-08-25T23:14:09.467Z,75.50
2022-08-25T23:16:37.544Z,74.80
2022-08-25T23:19:04.782Z,76.10
2022-08-25T23:21:51.351Z,75.70
2022-08-25T23:24:29.544Z,75.90
2022-08-25T23:26:58.629Z,75.80
2022-08-25T23:29:25.599Z,75.70
2022-08-25T23:31:53.675Z,76.20
2022-08-25T23:34:21.586Z,77.60
2022-08-25T23:36:49.200Z,78.60
2022-08-25T23:39:16.259Z,77.50
2022-08-25T23:41:47.401Z,77.80
2022-08-25T23:44:17.526Z,78.00
2022-08-25T23:46:47.587Z,77.50
2022-08-25T23:49:18.687Z,77.00
2022-08-25T23:51:47.938Z,77.80
2022-08-25T23:54:16.538Z,77.80
2022-08-25T23:56:51.444Z,77.90
2022-08-25T23:59:24.861Z,78.80
